Terminal Aerodrome Forecast
Issued by NWS Shreveport, LA

Home | Current Version | Previous Version | Text Only | Print | Product List | Glossary On
Versions: 1 2 3 4 5 6 7 8 9 10 11 12 13
000
FTUS44 KSHV 122300
TAFGGG
TAF
KGGG 122320Z 1300/1324 18003KT P6SM SKC
     FM131400 23006KT P6SM SKC
     FM131700 22006KT P6SM SCT050=

USA.gov is the U.S. government's official web portal to all federal, state and local government web resources and services.